createdAt,value
2022-10-28T00:02:11.640Z,13.16
2022-10-28T00:05:17.090Z,13.24
2022-10-28T00:08:23.597Z,13.19
2022-10-28T00:11:42.558Z,13.07
2022-10-28T00:14:49.311Z,13.05
2022-10-28T00:17:55.166Z,13.11
2022-10-28T00:21:01.645Z,13.07
2022-10-28T00:24:07.364Z,13.06
2022-10-28T00:27:12.968Z,13.06
2022-10-28T00:30:20.846Z,13.02
2022-10-28T00:33:26.998Z,13.00
2022-10-28T00:36:36.263Z,13.03
2022-10-28T00:39:41.976Z,13.05
2022-10-28T00:42:48.504Z,13.08
2022-10-28T00:45:54.673Z,13.03
2022-10-28T00:49:04.336Z,12.87
2022-10-28T00:52:24.279Z,13.05
2022-10-28T00:55:23.366Z,13.00
2022-10-28T00:58:29.866Z,13.05
2022-10-28T01:01:35.298Z,13.08
2022-10-28T01:04:43.208Z,13.14
2022-10-28T01:07:48.793Z,13.05
2022-10-28T01:11:34.526Z,13.12
2022-10-28T01:15:15.592Z,13.15
2022-10-28T01:18:34.978Z,13.07
2022-10-28T01:22:03.031Z,13.14
2022-10-28T01:25:47.250Z,13.10
2022-10-28T01:29:04.556Z,13.18
2022-10-28T01:32:20.944Z,13.16
2022-10-28T01:35:38.124Z,13.29
2022-10-28T01:39:06.123Z,13.27
2022-10-28T01:42:24.620Z,13.26
2022-10-28T01:45:40.159Z,12.99
2022-10-28T01:49:05.877Z,13.11
2022-10-28T01:52:09.589Z,13.19
2022-10-28T01:55:30.418Z,13.24
2022-10-28T01:58:40.499Z,13.10
2022-10-28T02:01:46.833Z,13.17
2022-10-28T02:04:53.164Z,13.15
2022-10-28T02:07:59.512Z,13.18
2022-10-28T02:11:40.771Z,13.16
2022-10-28T02:15:20.202Z,13.15
2022-10-28T02:18:43.174Z,13.05
2022-10-28T02:22:00.154Z,13.07
2022-10-28T02:25:25.047Z,12.98
2022-10-28T02:28:38.488Z,13.03
2022-10-28T02:31:52.131Z,13.10
2022-10-28T02:35:00.555Z,13.11
2022-10-28T02:38:07.105Z,13.01
2022-10-28T02:41:16.956Z,12.89
2022-10-28T02:44:26.127Z,13.07
2022-10-28T02:47:34.323Z,13.16
2022-10-28T02:50:48.938Z,13.17
2022-10-28T02:54:21.388Z,13.16
2022-10-28T02:57:36.470Z,13.14
2022-10-28T03:00:42.025Z,13.16
2022-10-28T03:03:48.342Z,13.07
2022-10-28T03:06:57.344Z,13.07
2022-10-28T03:10:03.546Z,13.04
2022-10-28T03:13:09.867Z,13.04
2022-10-28T03:16:15.149Z,13.04
2022-10-28T03:19:14.281Z,13.15
2022-10-28T03:22:20.604Z,13.18
2022-10-28T03:25:19.278Z,13.34
2022-10-28T03:28:04.875Z,13.05
2022-10-28T03:30:57.468Z,13.17
2022-10-28T03:33:50.203Z,13.04
2022-10-28T03:36:56.011Z,13.02
2022-10-28T03:40:01.721Z,13.02
2022-10-28T03:43:07.838Z,13.01
2022-10-28T03:46:14.758Z,12.97
2022-10-28T03:49:20.978Z,13.08
2022-10-28T03:52:26.419Z,13.03
2022-10-28T03:55:34.227Z,13.10
2022-10-28T03:58:41.242Z,13.04
2022-10-28T04:01:46.869Z,13.05
2022-10-28T04:04:53.324Z,12.95
2022-10-28T04:08:00.571Z,13.09
2022-10-28T04:11:06.411Z,12.96
2022-10-28T04:14:13.471Z,13.16
2022-10-28T04:17:19.391Z,13.34
2022-10-28T04:20:25.297Z,13.28
2022-10-28T04:23:31.718Z,13.35
2022-10-28T04:26:38.259Z,13.25
2022-10-28T04:29:44.188Z,13.23
2022-10-28T04:32:49.525Z,13.30
2022-10-28T04:35:55.459Z,13.33
2022-10-28T04:39:01.752Z,13.21
2022-10-28T04:42:08.264Z,13.33
2022-10-28T04:45:13.044Z,13.28
2022-10-28T04:48:18.665Z,13.42
2022-10-28T04:51:23.475Z,13.42
2022-10-28T04:54:29.636Z,13.53
2022-10-28T04:57:34.761Z,13.57
2022-10-28T05:00:40.419Z,13.52
2022-10-28T05:03:45.783Z,13.44
2022-10-28T05:06:52.412Z,13.54
2022-10-28T05:09:52.069Z,13.57
2022-10-28T05:13:00.098Z,13.44
2022-10-28T05:16:05.892Z,13.35
2022-10-28T05:19:13.813Z,13.29
2022-10-28T05:22:20.436Z,13.34
2022-10-28T05:25:27.603Z,13.34
2022-10-28T05:28:33.510Z,13.33
2022-10-28T05:31:39.296Z,13.41
2022-10-28T05:34:45.202Z,13.58
2022-10-28T05:37:51.712Z,13.63
2022-10-28T05:40:58.761Z,13.76
2022-10-28T05:44:05.532Z,13.79
2022-10-28T05:47:11.223Z,13.97
2022-10-28T05:50:17.052Z,14.08
2022-10-28T05:53:23.100Z,14.06
2022-10-28T05:56:29.120Z,14.00
2022-10-28T05:59:34.147Z,14.03
2022-10-28T06:02:40.606Z,14.04
2022-10-28T06:05:40.170Z,14.05
2022-10-28T06:08:46.835Z,13.98
2022-10-28T06:11:50.704Z,14.08
2022-10-28T06:14:56.104Z,14.05
2022-10-28T06:18:04.787Z,14.10
2022-10-28T06:21:11.716Z,14.18
2022-10-28T06:24:17.385Z,14.28
2022-10-28T06:27:22.988Z,14.22
2022-10-28T06:30:28.685Z,14.25
2022-10-28T06:33:35.431Z,14.23
2022-10-28T06:36:40.964Z,14.22
2022-10-28T06:39:43.328Z,14.41
2022-10-28T06:42:48.306Z,14.35
2022-10-28T06:45:55.940Z,14.31
2022-10-28T06:49:04.151Z,14.37
2022-10-28T06:52:09.915Z,14.31
2022-10-28T06:55:14.780Z,14.37
2022-10-28T06:58:20.831Z,14.52
2022-10-28T07:01:26.951Z,14.80
2022-10-28T07:04:33.044Z,14.82
2022-10-28T07:07:32.303Z,14.79
2022-10-28T07:10:37.500Z,14.86
2022-10-28T07:13:44.365Z,14.73
2022-10-28T07:16:50.928Z,14.73
2022-10-28T07:19:57.624Z,14.82
2022-10-28T07:23:05.758Z,14.93
2022-10-28T07:26:11.085Z,15.15
2022-10-28T07:29:17.485Z,15.16
2022-10-28T07:32:26.056Z,15.23
2022-10-28T07:35:31.860Z,15.24
2022-10-28T07:38:37.778Z,15.23
2022-10-28T07:41:43.547Z,15.30
2022-10-28T07:44:51.502Z,15.21
2022-10-28T07:47:59.017Z,15.21
2022-10-28T07:51:04.878Z,15.20
2022-10-28T07:54:11.713Z,15.04
2022-10-28T07:57:18.674Z,15.20
2022-10-28T08:00:26.023Z,15.32
2022-10-28T08:03:38.660Z,15.38
2022-10-28T08:06:40.956Z,15.38
2022-10-28T08:09:47.963Z,15.45
2022-10-28T08:12:55.533Z,15.59
2022-10-28T08:16:10.338Z,15.48
2022-10-28T08:19:17.030Z,15.48
2022-10-28T08:22:23.720Z,15.39
2022-10-28T08:25:31.309Z,15.34
2022-10-28T08:28:37.736Z,15.47
2022-10-28T08:31:45.569Z,15.45
2022-10-28T08:34:52.673Z,15.53
2022-10-28T08:37:58.170Z,15.49
2022-10-28T08:41:43.490Z,15.70
2022-10-28T08:45:20.499Z,15.63
2022-10-28T08:48:46.034Z,15.68
2022-10-28T08:52:11.428Z,15.76
2022-10-28T08:55:28.910Z,15.67
2022-10-28T08:58:44.481Z,15.90
2022-10-28T09:02:03.794Z,16.21
2022-10-28T09:05:33.849Z,16.38
2022-10-28T09:08:42.257Z,16.53
2022-10-28T09:12:22.637Z,16.15
2022-10-28T09:15:53.970Z,16.13
2022-10-28T09:19:14.096Z,16.12
2022-10-28T09:22:39.991Z,16.10
2022-10-28T09:26:15.856Z,16.25
2022-10-28T09:29:44.301Z,16.64
2022-10-28T09:33:15.067Z,16.59
2022-10-28T09:36:28.218Z,16.59
2022-10-28T09:39:45.671Z,16.63
2022-10-28T09:42:54.813Z,17.04
2022-10-28T09:46:02.099Z,17.16
2022-10-28T09:49:08.457Z,17.30
2022-10-28T09:52:40.189Z,17.07
2022-10-28T09:55:43.628Z,17.03
2022-10-28T09:58:49.108Z,16.96
2022-10-28T10:01:54.841Z,17.11
2022-10-28T10:05:01.788Z,17.14
2022-10-28T10:08:17.931Z,17.12
2022-10-28T10:11:27.759Z,17.05
2022-10-28T10:14:45.807Z,17.12
2022-10-28T10:17:59.479Z,16.84
2022-10-28T10:21:07.974Z,16.59
2022-10-28T10:24:13.944Z,16.96
2022-10-28T10:27:35.458Z,16.88
2022-10-28T10:30:53.033Z,16.97
2022-10-28T10:33:59.002Z,16.42
2022-10-28T10:37:08.789Z,16.51
2022-10-28T10:40:42.460Z,16.44
2022-10-28T10:43:49.987Z,16.38
2022-10-28T10:46:56.211Z,16.31
2022-10-28T10:50:03.601Z,16.22
2022-10-28T10:53:12.408Z,16.33
2022-10-28T10:56:22.540Z,16.57
2022-10-28T10:59:44.604Z,16.46
2022-10-28T11:02:55.799Z,16.50
2022-10-28T11:06:24.597Z,16.44
2022-10-28T11:09:21.231Z,16.21
2022-10-28T11:12:43.104Z,15.97
2022-10-28T11:15:50.878Z,16.01
2022-10-28T11:19:07.420Z,16.08
2022-10-28T11:22:43.428Z,15.82
2022-10-28T11:25:54.597Z,15.86
2022-10-28T11:29:23.883Z,15.78
2022-10-28T11:33:08.127Z,15.85
2022-10-28T11:36:26.420Z,15.69
2022-10-28T11:39:56.142Z,15.66
2022-10-28T11:43:22.377Z,16.02
2022-10-28T11:47:03.983Z,15.97
2022-10-28T11:50:36.857Z,16.03
2022-10-28T11:53:51.891Z,16.00
2022-10-28T11:57:02.567Z,15.83
2022-10-28T12:00:38.355Z,15.86
2022-10-28T12:04:27.480Z,15.83
2022-10-28T12:07:44.830Z,15.88
2022-10-28T12:11:29.095Z,15.86
2022-10-28T12:14:52.322Z,15.86
2022-10-28T12:18:14.097Z,16.03
2022-10-28T12:21:28.759Z,16.06
2022-10-28T12:24:36.709Z,16.03
2022-10-28T12:27:52.001Z,16.07
2022-10-28T12:30:57.067Z,16.28
2022-10-28T12:34:06.809Z,16.14
2022-10-28T12:37:14.958Z,16.25
2022-10-28T12:40:39.728Z,16.28
2022-10-28T12:44:06.571Z,16.14
2022-10-28T12:47:44.290Z,16.10
2022-10-28T12:50:59.436Z,16.34
2022-10-28T12:54:26.795Z,16.18
2022-10-28T12:57:32.243Z,15.90
2022-10-28T13:00:40.862Z,15.92
2022-10-28T13:03:46.375Z,15.95
2022-10-28T13:07:23.340Z,15.95
2022-10-28T13:10:38.650Z,15.93
2022-10-28T13:14:03.709Z,16.01
2022-10-28T13:17:46.263Z,16.06
2022-10-28T13:21:23.802Z,15.87
2022-10-28T13:24:46.645Z,15.88
2022-10-28T13:27:52.553Z,16.06
2022-10-28T13:31:21.894Z,15.93
2022-10-28T13:34:29.110Z,16.02
2022-10-28T13:37:35.931Z,15.87
2022-10-28T13:40:44.794Z,15.75
2022-10-28T13:43:41.082Z,15.69
2022-10-28T13:47:11.085Z,15.68
2022-10-28T13:50:29.819Z,15.60
2022-10-28T13:54:03.809Z,15.80
2022-10-28T13:57:09.059Z,15.51
2022-10-28T14:00:19.577Z,15.45
2022-10-28T14:03:41.472Z,15.47
2022-10-28T14:06:47.776Z,15.43
2022-10-28T14:09:53.489Z,15.38
2022-10-28T14:13:02.202Z,15.28
2022-10-28T14:16:34.501Z,15.18
2022-10-28T14:19:41.112Z,15.01
2022-10-28T14:22:50.647Z,15.01
2022-10-28T14:26:06.350Z,15.11
2022-10-28T14:29:11.472Z,15.15
2022-10-28T14:32:22.066Z,14.89
2022-10-28T14:35:32.696Z,14.85
2022-10-28T14:38:55.243Z,14.97
2022-10-28T14:42:36.618Z,14.75
2022-10-28T14:46:01.116Z,14.68
2022-10-28T14:49:14.031Z,14.61
2022-10-28T14:52:32.947Z,14.44
2022-10-28T14:55:44.745Z,14.40
2022-10-28T14:58:53.370Z,14.37
2022-10-28T15:02:31.143Z,14.21
2022-10-28T15:05:37.056Z,14.13
2022-10-28T15:08:42.875Z,14.06
2022-10-28T15:11:49.181Z,14.07
2022-10-28T15:15:05.863Z,14.01
2022-10-28T15:18:12.504Z,14.03
2022-10-28T15:21:26.354Z,14.10
2022-10-28T15:24:26.619Z,14.24
2022-10-28T15:27:14.308Z,14.09
2022-10-28T15:30:06.616Z,14.14
2022-10-28T15:32:58.972Z,13.99
2022-10-28T15:36:05.019Z,13.92
2022-10-28T15:39:25.076Z,13.83
2022-10-28T15:42:58.816Z,13.78
2022-10-28T15:46:04.998Z,13.72
2022-10-28T15:49:12.813Z,13.87
2022-10-28T15:52:40.870Z,13.92
2022-10-28T15:59:00.998Z,13.77
2022-10-28T16:02:08.697Z,14.03
2022-10-28T16:05:14.167Z,13.91
2022-10-28T16:08:32.688Z,13.60
2022-10-28T16:11:38.493Z,13.42
2022-10-28T16:15:09.326Z,13.42
2022-10-28T16:18:16.692Z,13.42
2022-10-28T16:21:15.118Z,13.40
2022-10-28T16:24:21.714Z,13.53
2022-10-28T16:27:33.515Z,13.43
2022-10-28T16:30:38.926Z,13.46
2022-10-28T16:33:49.115Z,13.59
2022-10-28T16:36:54.929Z,13.54
2022-10-28T16:40:00.096Z,13.65
2022-10-28T16:43:08.686Z,13.60
2022-10-28T16:46:16.379Z,13.59
2022-10-28T16:49:21.971Z,13.64
2022-10-28T16:52:26.592Z,13.63
2022-10-28T16:55:34.765Z,13.64
2022-10-28T16:58:42.185Z,13.57
2022-10-28T17:01:48.999Z,13.43
2022-10-28T17:04:55.588Z,13.47
2022-10-28T17:08:07.329Z,13.43
2022-10-28T17:11:11.624Z,13.57
2022-10-28T17:14:18.094Z,13.50
2022-10-28T17:17:23.322Z,13.28
2022-10-28T17:20:30.837Z,13.23
2022-10-28T17:23:37.536Z,12.93
2022-10-28T17:26:44.241Z,12.90
2022-10-28T17:29:49.254Z,12.68
2022-10-28T17:32:55.928Z,12.46
2022-10-28T17:36:02.330Z,12.42
2022-10-28T17:39:10.119Z,12.40
2022-10-28T17:42:16.183Z,12.37
2022-10-28T17:45:22.768Z,12.37
2022-10-28T17:48:29.457Z,12.17
2022-10-28T17:51:37.835Z,12.20
2022-10-28T17:54:44.206Z,12.05
2022-10-28T17:57:53.081Z,12.04
2022-10-28T18:01:00.316Z,11.97
2022-10-28T18:04:06.226Z,11.89
2022-10-28T18:07:12.882Z,11.80
2022-10-28T18:10:20.317Z,11.65
2022-10-28T18:13:26.633Z,11.55
2022-10-28T18:16:34.585Z,11.55
2022-10-28T18:19:40.129Z,11.56
2022-10-28T18:22:46.686Z,11.56
2022-10-28T18:25:53.080Z,11.48
2022-10-28T18:28:59.525Z,11.30
2022-10-28T18:32:04.705Z,11.25
2022-10-28T18:35:10.546Z,11.18
2022-10-28T18:38:15.619Z,11.21
2022-10-28T18:41:33.453Z,11.11
2022-10-28T18:44:38.619Z,11.10
2022-10-28T18:47:43.848Z,11.07
2022-10-28T18:50:50.332Z,11.07
2022-10-28T18:54:02.334Z,11.09
2022-10-28T18:57:08.244Z,11.08
2022-10-28T19:00:19.156Z,11.14
2022-10-28T19:03:23.699Z,11.06
2022-10-28T19:06:30.991Z,10.97
2022-10-28T19:09:37.343Z,10.87
2022-10-28T19:12:45.984Z,10.79
2022-10-28T19:15:50.758Z,10.83
2022-10-28T19:18:58.425Z,10.79
2022-10-28T19:22:04.301Z,10.72
2022-10-28T19:25:10.241Z,10.83
2022-10-28T19:28:17.719Z,10.77
2022-10-28T19:31:26.630Z,10.92
2022-10-28T19:34:25.597Z,10.48
2022-10-28T19:37:18.232Z,10.48
2022-10-28T19:40:23.936Z,10.46
2022-10-28T19:43:30.678Z,10.37
2022-10-28T19:46:35.622Z,10.29
2022-10-28T19:49:44.278Z,10.38
2022-10-28T19:52:42.714Z,10.61
2022-10-28T19:55:49.281Z,10.66
2022-10-28T19:58:56.813Z,10.55
2022-10-28T20:02:02.729Z,10.45
2022-10-28T20:05:09.904Z,10.70
2022-10-28T20:08:16.926Z,10.79
2022-10-28T20:11:26.236Z,11.04
2022-10-28T20:14:31.417Z,11.11
2022-10-28T20:17:38.081Z,11.19
2022-10-28T20:20:44.410Z,11.36
2022-10-28T20:26:56.501Z,11.39
2022-10-28T20:30:03.628Z,11.58
2022-10-28T20:33:08.984Z,11.75
2022-10-28T20:36:14.851Z,11.82
2022-10-28T20:39:25.567Z,11.96
2022-10-28T20:42:24.564Z,12.12
2022-10-28T20:45:30.313Z,12.25
2022-10-28T20:48:37.220Z,12.31
2022-10-28T20:51:45.005Z,12.34
2022-10-28T20:54:49.699Z,12.49
2022-10-28T20:57:55.303Z,12.49
2022-10-28T21:01:00.808Z,12.64
2022-10-28T21:04:08.636Z,12.60
2022-10-28T21:07:15.527Z,12.49
2022-10-28T21:10:23.701Z,12.68
2022-10-28T21:13:32.043Z,12.45
2022-10-28T21:16:37.439Z,12.66
2022-10-28T21:19:44.857Z,12.57
2022-10-28T21:22:50.880Z,12.51
2022-10-28T21:25:51.324Z,12.51
2022-10-28T21:28:58.829Z,12.76
2022-10-28T21:32:05.245Z,12.87
2022-10-28T21:35:11.375Z,12.83
2022-10-28T21:38:18.130Z,12.81
2022-10-28T21:41:33.659Z,12.68
2022-10-28T21:44:38.502Z,12.74
2022-10-28T21:47:44.307Z,12.73
2022-10-28T21:50:49.861Z,12.76
2022-10-28T21:53:56.067Z,12.83
2022-10-28T21:56:57.901Z,12.74
2022-10-28T21:59:57.866Z,12.73
2022-10-28T22:03:05.874Z,12.86
2022-10-28T22:06:11.150Z,12.92
2022-10-28T22:09:17.538Z,12.97
2022-10-28T22:12:24.460Z,12.92
2022-10-28T22:15:30.956Z,12.92
2022-10-28T22:18:36.550Z,12.96
2022-10-28T22:21:47.982Z,12.94
2022-10-28T22:24:53.710Z,12.93
2022-10-28T22:27:59.533Z,12.96
2022-10-28T22:31:05.145Z,12.99
2022-10-28T22:34:12.997Z,12.88
2022-10-28T22:37:18.816Z,12.83
2022-10-28T22:40:25.443Z,12.69
2022-10-28T22:43:31.118Z,12.73
2022-10-28T22:46:38.188Z,12.70
2022-10-28T22:49:43.365Z,12.71
2022-10-28T22:52:49.609Z,12.66
2022-10-28T22:55:56.348Z,12.79
2022-10-28T22:59:03.861Z,12.76
2022-10-28T23:02:09.881Z,12.73
2022-10-28T23:05:15.960Z,12.81
2022-10-28T23:08:22.563Z,12.72
2022-10-28T23:11:28.150Z,12.79
2022-10-28T23:14:34.245Z,12.69
2022-10-28T23:17:39.522Z,12.69
2022-10-28T23:20:44.582Z,12.66
2022-10-28T23:23:53.942Z,12.65
2022-10-28T23:27:00.565Z,12.50
2022-10-28T23:30:05.944Z,12.50
2022-10-28T23:33:12.834Z,12.59
2022-10-28T23:36:11.793Z,12.57
2022-10-28T23:39:19.438Z,12.48
2022-10-28T23:42:26.144Z,12.48
2022-10-28T23:45:31.748Z,12.35
2022-10-28T23:48:37.741Z,12.27
2022-10-28T23:51:37.364Z,12.25
2022-10-28T23:54:44.759Z,12.23
2022-10-28T23:57:51.325Z,12.12
